createdAt,value
2022-08-11T00:01:29.059Z,58.06
2022-08-11T00:06:40.040Z,58.64
2022-08-11T00:11:51.245Z,59.29
2022-08-11T00:17:04.555Z,59.46
2022-08-11T00:22:09.266Z,59.94
2022-08-11T00:27:14.314Z,60.28
2022-08-11T00:32:18.128Z,60.62
2022-08-11T00:37:23.199Z,60.23
2022-08-11T00:43:00.345Z,59.94
2022-08-11T00:48:29.686Z,60.35
2022-08-11T00:53:35.378Z,60.64
2022-08-11T00:59:35.438Z,60.73
2022-08-11T01:05:17.175Z,60.93
2022-08-11T01:11:09.884Z,60.91
2022-08-11T01:16:31.136Z,60.88
2022-08-11T01:22:39.459Z,61.19
2022-08-11T01:28:16.113Z,61.82
2022-08-11T01:33:59.709Z,61.97
2022-08-11T01:39:41.644Z,61.96
2022-08-11T01:45:30.839Z,62.03
2022-08-11T01:51:17.485Z,62.33
2022-08-11T01:56:53.287Z,62.77
2022-08-11T02:02:21.202Z,62.68
2022-08-11T02:07:55.524Z,62.54
2022-08-11T02:13:17.150Z,62.54
2022-08-11T02:18:57.021Z,62.46
2022-08-11T02:24:09.582Z,62.94
2022-08-11T02:29:26.078Z,63.07
2022-08-11T02:35:00.026Z,63.64
2022-08-11T02:40:31.625Z,63.33
2022-08-11T02:45:57.085Z,63.39
2022-08-11T02:51:53.907Z,63.60
2022-08-11T02:57:21.551Z,63.68
2022-08-11T03:02:49.445Z,63.69
2022-08-11T03:08:13.686Z,63.42
2022-08-11T03:13:50.446Z,63.23
2022-08-11T03:19:31.611Z,63.78
2022-08-11T03:24:46.694Z,63.90
2022-08-11T03:30:16.739Z,63.99
2022-08-11T03:35:21.576Z,63.92
2022-08-11T03:40:55.443Z,64.19
2022-08-11T03:46:10.583Z,64.76
2022-08-11T03:51:54.682Z,65.06
2022-08-11T03:57:11.656Z,64.87
2022-08-11T04:02:49.727Z,64.46
2022-08-11T04:08:23.747Z,64.82
2022-08-11T04:14:41.137Z,64.97
2022-08-11T04:20:24.698Z,65.48
2022-08-11T04:25:59.507Z,65.67
2022-08-11T04:31:52.084Z,66.05
2022-08-11T04:37:42.248Z,65.84
2022-08-11T04:43:25.803Z,65.52
2022-08-11T04:49:54.025Z,65.15
2022-08-11T04:56:09.972Z,64.39
2022-08-11T05:01:43.950Z,62.81
2022-08-11T05:07:05.715Z,61.88
2022-08-11T05:12:36.335Z,60.91
2022-08-11T05:18:26.763Z,60.10
2022-08-11T05:23:49.238Z,59.87
2022-08-11T05:29:19.296Z,59.23
2022-08-11T05:34:55.331Z,58.97
2022-08-11T05:40:29.955Z,58.11
2022-08-11T05:46:03.452Z,57.59
2022-08-11T05:51:29.973Z,57.22
2022-08-11T05:56:42.417Z,56.70
2022-08-11T06:01:48.177Z,56.13
2022-08-11T06:07:06.444Z,55.87
2022-08-11T06:12:29.753Z,55.62
2022-08-11T06:17:39.140Z,55.31
2022-08-11T06:22:52.361Z,55.36
2022-08-11T06:27:57.333Z,55.00
2022-08-11T06:33:01.905Z,54.66
2022-08-11T06:38:27.903Z,54.09
2022-08-11T06:44:06.167Z,53.80
2022-08-11T06:49:33.632Z,54.34
2022-08-11T06:54:52.781Z,54.01
2022-08-11T07:00:15.316Z,53.12
2022-08-11T07:06:08.970Z,53.04
2022-08-11T07:12:04.959Z,53.03
2022-08-11T07:17:18.074Z,52.51
2022-08-11T07:22:43.696Z,52.68
2022-08-11T07:28:13.117Z,52.53
2022-08-11T07:34:07.588Z,52.48
2022-08-11T07:38:54.765Z,52.37
2022-08-11T07:44:09.959Z,52.32
2022-08-11T07:49:31.599Z,51.97
2022-08-11T07:54:36.866Z,51.93
2022-08-11T08:00:04.343Z,52.38
2022-08-11T08:05:27.486Z,51.95
2022-08-11T08:10:51.108Z,51.61
2022-08-11T08:16:14.040Z,51.49
2022-08-11T08:21:17.134Z,51.38
2022-08-11T08:27:17.567Z,51.57
2022-08-11T08:32:21.978Z,51.34
2022-08-11T08:37:45.523Z,51.33
2022-08-11T08:42:56.510Z,51.25
2022-08-11T08:48:17.079Z,50.99
2022-08-11T08:53:32.084Z,50.36
2022-08-11T08:58:40.454Z,50.17
2022-08-11T09:04:05.304Z,50.22
2022-08-11T09:09:09.129Z,50.59
2022-08-11T09:14:15.123Z,51.45
2022-08-11T09:19:21.383Z,50.91
2022-08-11T09:24:43.369Z,50.46
2022-08-11T09:29:47.389Z,49.72
2022-08-11T09:34:52.539Z,49.74
2022-08-11T09:40:16.510Z,49.61
2022-08-11T09:45:21.110Z,50.19
2022-08-11T09:50:24.752Z,50.42
2022-08-11T09:55:28.150Z,50.90
2022-08-11T10:00:38.261Z,50.57
2022-08-11T10:06:08.165Z,51.22
2022-08-11T10:11:18.827Z,51.58
2022-08-11T10:16:28.291Z,51.32
2022-08-11T10:21:45.270Z,51.40
2022-08-11T10:26:54.673Z,50.98
2022-08-11T10:32:17.679Z,50.20
2022-08-11T10:37:24.594Z,50.55
2022-08-11T10:43:07.313Z,50.91
2022-08-11T10:48:15.385Z,52.76
2022-08-11T10:53:39.016Z,53.99
2022-08-11T10:58:49.675Z,54.84
2022-08-11T11:04:02.215Z,55.10
2022-08-11T11:09:11.652Z,55.87
2022-08-11T11:14:46.355Z,57.39
2022-08-11T11:20:00.271Z,57.93
2022-08-11T11:25:44.943Z,60.89
2022-08-11T11:31:22.507Z,60.59
2022-08-11T11:36:34.323Z,58.17
2022-08-11T11:41:37.918Z,57.38
2022-08-11T11:46:42.011Z,55.38
2022-08-11T11:51:52.653Z,55.74
2022-08-11T11:56:58.484Z,56.70
2022-08-11T12:02:01.891Z,58.13
2022-08-11T12:07:35.677Z,58.85
2022-08-11T12:12:57.855Z,59.01
2022-08-11T12:18:01.905Z,58.93
2022-08-11T12:23:24.804Z,57.46
2022-08-11T12:28:29.081Z,56.45
2022-08-11T12:33:35.088Z,56.64
2022-08-11T12:38:39.601Z,56.69
2022-08-11T12:44:06.083Z,57.80
2022-08-11T12:49:51.839Z,56.54
2022-08-11T12:55:07.536Z,55.93
2022-08-11T13:00:35.021Z,55.50
2022-08-11T13:05:44.283Z,56.21
2022-08-11T13:11:10.200Z,55.54
2022-08-11T13:16:15.051Z,56.19
2022-08-11T13:21:20.655Z,57.27
2022-08-11T13:26:25.033Z,57.91
2022-08-11T13:31:47.867Z,56.23
2022-08-11T13:36:53.614Z,55.54
2022-08-11T13:41:59.748Z,55.57
2022-08-11T13:47:06.858Z,54.99
2022-08-11T13:52:16.916Z,55.08
2022-08-11T13:58:07.619Z,54.87
2022-08-11T14:02:48.914Z,55.29
2022-08-11T14:07:59.376Z,55.17
2022-08-11T14:13:27.877Z,54.88
2022-08-11T14:18:33.951Z,54.86
2022-08-11T14:23:46.935Z,55.31
2022-08-11T14:29:22.126Z,54.61
2022-08-11T14:34:30.336Z,53.96
2022-08-11T14:39:38.898Z,55.40
2022-08-11T14:45:08.957Z,55.48
2022-08-11T14:50:23.448Z,55.20
2022-08-11T14:55:54.126Z,54.29
2022-08-11T15:01:00.260Z,54.08
2022-08-11T15:06:05.339Z,54.16
2022-08-11T15:11:29.809Z,53.44
2022-08-11T15:16:52.514Z,53.11
2022-08-11T15:22:14.570Z,52.82
2022-08-11T15:27:40.966Z,52.93
2022-08-11T15:33:04.856Z,52.53
2022-08-11T15:38:13.218Z,53.14
2022-08-11T15:43:57.204Z,52.94
2022-08-11T15:49:09.377Z,52.59
2022-08-11T15:54:17.608Z,52.47
2022-08-11T15:59:43.800Z,52.39
2022-08-11T16:04:49.849Z,52.69
2022-08-11T16:10:01.915Z,53.13
2022-08-11T16:15:29.675Z,53.33
2022-08-11T16:20:35.172Z,53.79
2022-08-11T16:27:01.868Z,54.55
2022-08-11T16:31:02.602Z,54.92
2022-08-11T16:36:27.036Z,55.28
2022-08-11T16:41:53.189Z,55.74
2022-08-11T16:47:00.884Z,55.29
2022-08-11T16:52:08.309Z,55.22
2022-08-11T16:57:37.932Z,55.29
2022-08-11T17:03:15.639Z,55.87
2022-08-11T17:08:41.680Z,56.01
2022-08-11T17:14:00.965Z,56.30
2022-08-11T17:19:11.967Z,56.78
2022-08-11T17:24:16.254Z,57.00
2022-08-11T17:29:24.857Z,57.32
2022-08-11T17:34:47.324Z,57.85
2022-08-11T17:39:50.829Z,58.62
2022-08-11T17:45:14.901Z,59.24
2022-08-11T17:50:19.223Z,59.29
2022-08-11T17:55:52.585Z,59.27
2022-08-11T18:00:57.796Z,59.73
2022-08-11T18:06:12.495Z,59.88
2022-08-11T18:12:06.844Z,60.17
2022-08-11T18:17:18.430Z,59.38
2022-08-11T18:22:44.979Z,58.92
2022-08-11T18:28:12.213Z,58.98
2022-08-11T18:34:06.431Z,59.69
2022-08-11T18:39:18.617Z,59.74
2022-08-11T18:44:47.536Z,59.82
2022-08-11T18:50:15.575Z,59.91
2022-08-11T18:55:43.506Z,60.03
2022-08-11T19:01:06.116Z,59.70
2022-08-11T19:06:39.170Z,59.18
2022-08-11T19:12:04.937Z,59.02
2022-08-11T19:17:44.949Z,59.20
2022-08-11T19:23:10.230Z,58.86
2022-08-11T19:28:34.878Z,58.39
2022-08-11T19:34:02.372Z,58.07
2022-08-11T19:39:33.275Z,57.62
2022-08-11T19:44:55.262Z,57.88
2022-08-11T19:50:24.255Z,58.40
2022-08-11T19:55:48.140Z,58.21
2022-08-11T20:01:10.167Z,58.68
2022-08-11T20:06:34.616Z,59.61
2022-08-11T20:12:03.364Z,60.23
2022-08-11T20:17:27.928Z,60.38
2022-08-11T20:22:50.228Z,60.32
2022-08-11T20:28:13.756Z,60.68
2022-08-11T20:33:36.535Z,60.88
2022-08-11T20:39:00.064Z,60.48
2022-08-11T20:44:23.053Z,60.16
2022-08-11T20:49:53.706Z,59.56
2022-08-11T20:55:25.875Z,60.10
2022-08-11T21:01:02.225Z,60.18
2022-08-11T21:06:31.548Z,60.34
2022-08-11T21:11:56.484Z,60.57
2022-08-11T21:17:26.933Z,61.06
2022-08-11T21:22:59.547Z,61.74
2022-08-11T21:28:30.834Z,62.11
2022-08-11T21:33:53.456Z,62.27
2022-08-11T21:39:15.225Z,61.88
2022-08-11T21:44:37.140Z,62.30
2022-08-11T21:50:00.644Z,62.52
2022-08-11T21:55:26.085Z,62.71
2022-08-11T22:00:48.386Z,63.03
2022-08-11T22:06:11.303Z,63.24
2022-08-11T22:11:35.068Z,63.36
2022-08-11T22:16:56.635Z,63.51
2022-08-11T22:22:19.476Z,63.46
2022-08-11T22:27:50.095Z,63.40
2022-08-11T22:33:13.811Z,63.53
2022-08-11T22:38:39.510Z,63.86
2022-08-11T22:44:01.589Z,63.97
2022-08-11T22:49:24.799Z,64.43
2022-08-11T22:54:47.365Z,64.81
2022-08-11T23:00:12.680Z,65.03
2022-08-11T23:05:35.858Z,65.02
2022-08-11T23:10:58.460Z,65.13
2022-08-11T23:16:20.734Z,65.12
2022-08-11T23:21:43.153Z,65.14
2022-08-11T23:27:06.690Z,65.24
2022-08-11T23:32:28.239Z,65.41
2022-08-11T23:37:50.346Z,65.47
2022-08-11T23:43:12.685Z,65.44
2022-08-11T23:48:36.943Z,65.42
2022-08-11T23:54:00.786Z,65.41
2022-08-11T23:59:30.292Z,65.77
